South Shields, United Kingdom
Current Conditions -  °F | °C
As of 11:20 AM on Thursday 27 Nov 2014 (Local Time) from EGNT Reporting Station
Scattered Clouds Scattered Clouds  
Wind Chill: 46°   Ceiling: Unl
Heat Index: 48°   Visibility: 4mi
Dew Point: 48°   Wind: 5mph
Humidity: 100%   Direction: 120°ESE
Pressure: 29.59"   Gusts: NA
Location:  55°N, 1.43°W
Report Text: EGNT 271120Z 12004KT 7000 FEW003 SCT030 09/09 Q1002
Loading
Personal Weather Stations






























Interactive Weather Map New forecast layout! Learn more

10-Day Weather Forecast

Advertisements
Track Severe Weather on mobile